Aegean Princess — ZDID9 — position and weather

sailwx.info

Track history (hours):
 
Tides and Currents Weather Stations Pressure Air Temp Water Temp Dewpoint Dewpoint Depression Visibility Wind Speed Wind Dir Waves Ship Positions

Aegean Princess

Last reported at 2015-Jul-04 07:30 UTC. Time now 2015-Jul-04 08:29 UTC.
Position N 36°07' W 005°22'.

Length 100 m; draft 7 m.

Type: Ship. MMSI: 236111476.

Date/timePositionNaut miles runAvg speedWind from/ knotsBaromVisibWave heightAir tempDewpointWater temp
2015-Jul-04 07:30N 36°07' W 005°22'0 0.0
2015-Jul-04 06:32N 36°07' W 005°22'0 0.0
2015-Jul-04 05:32N 36°07' W 005°22'0 0.1
2015-Jul-04 04:26N 36°07' W 005°22'0 0.0
2015-Jul-04 01:05N 36°07' W 005°22'0 0.1
2015-Jul-04 00:32N 36°07' W 005°22'0 0.2
2015-Jul-03 23:31N 36°07' W 005°22'2 0.7
2015-Jul-03 20:08N 36°09' W 005°22'0 0.0
2015-Jul-03 19:32N 36°09' W 005°22'0 0.0
2015-Jul-03 18:29N 36°09' W 005°22'0 0.0
2015-Jul-03 16:08N 36°09' W 005°22'0 0.1
2015-Jul-03 15:32N 36°09' W 005°22'0 0.1
2015-Jul-03 14:26N 36°09' W 005°22'0 0.0
2015-Jul-03 07:28N 36°09' W 005°22'0 0.1
2015-Jul-03 05:31N 36°09' W 005°22'0 0.0
2015-Jul-03 04:22N 36°09' W 005°22'0 0.0
2015-Jul-03 03:31N 36°09' W 005°22'0 0.0
2015-Jul-03 02:19N 36°09' W 005°22'0 0.0
2015-Jul-03 01:31N 36°09' W 005°22'0 0.1
2015-Jul-03 00:31N 36°09' W 005°22'1 1.2
2015-Jul-02 23:32N 36°08' W 005°23'1 1.1
2015-Jul-02 22:28N 36°07' W 005°22'0 0.0
2015-Jul-02 21:31N 36°07' W 005°22'0 0.1
2015-Jul-02 20:31N 36°07' W 005°22'0 0.0
2015-Jul-02 19:31N 36°07' W 005°22'0 0.1
2015-Jul-02 18:22N 36°07' W 005°22'0 0.2
2015-Jul-02 17:31N 36°07' W 005°22'0 0.1
2015-Jul-02 16:31N 36°07' W 005°22'0 0.1
2015-Jul-02 15:31N 36°07' W 005°22'0 0.2
2015-Jul-02 13:33N 36°07' W 005°22'2 0.9
2015-Jul-02 11:25N 36°09' W 005°22'2 0.4
2015-Jul-02 06:33N 36°07' W 005°22'1 0.6
2015-Jul-02 05:33N 36°07' W 005°21'0 0.0
2015-Jul-02 04:33N 36°07' W 005°21'0 0.0
2015-Jul-02 03:33N 36°07' W 005°21'0 0.0
2015-Jul-02 02:30N 36°07' W 005°21'0 0.1
2015-Jul-02 01:30N 36°07' W 005°21'3 0.4
2015-Jul-01 18:23N 36°09' W 005°23'0 0.0
2015-Jul-01 17:32N 36°09' W 005°23'0 0.1
2015-Jul-01 16:32N 36°09' W 005°23'0 0.0
2015-Jul-01 15:26N 36°09' W 005°23'1 0.1
2015-Jul-01 06:19N 36°09' W 005°23'1 0.8
2015-Jul-01 05:33N 36°08' W 005°22'0 0.0
2015-Jul-01 04:33N 36°08' W 005°22'0 0.1
2015-Jul-01 03:33N 36°08' W 005°22'0 0.4
2015-Jul-01 02:33N 36°09' W 005°22'0 0.4
2015-Jul-01 01:33N 36°09' W 005°22'0 0.0
2015-Jul-01 00:27N 36°09' W 005°22'0 0.0
2015-Jun-30 23:33N 36°09' W 005°22'0 0.0
2015-Jun-30 22:33N 36°09' W 005°22'0 0.0
2015-Jun-30 21:33N 36°09' W 005°22'0 0.0
2015-Jun-30 20:33N 36°09' W 005°22'0 0.0
2015-Jun-30 19:33N 36°09' W 005°22'0 0.0
2015-Jun-30 18:30N 36°09' W 005°22'0 0.0
2015-Jun-30 17:33N 36°09' W 005°22'0 0.0
2015-Jun-30 16:33N 36°09' W 005°22'0 0.0
2015-Jun-30 15:33N 36°09' W 005°22'0 0.0
2015-Jun-30 14:33N 36°09' W 005°22'0 0.0
2015-Jun-30 13:33N 36°09' W 005°22'0 0.0
2015-Jun-30 12:32N 36°09' W 005°22'1 0.4
2015-Jun-30 09:09N 36°07' W 005°22'0 0.0
2015-Jun-30 06:16N 36°07' W 005°22'2 0.3
2015-Jun-29 23:10N 36°09' W 005°22'2 3.7
2015-Jun-29 22:31N 36°07' W 005°21'0 0.1
2015-Jun-29 21:28N 36°07' W 005°21'0 0.1
2015-Jun-29 20:16N 36°07' W 005°21'0 0.1
2015-Jun-29 19:19N 36°07' W 005°21'2 2.1
2015-Jun-29 18:33N 36°08' W 005°23'1 0.9
2015-Jun-29 17:26N 36°09' W 005°22'0 0.0
2015-Jun-29 16:14N 36°09' W 005°22'0 0.0
2015-Jun-29 15:29N 36°09' W 005°22'14 6.4
2015-Jun-29 13:21N 35°56' W 005°28'1412.3
2015-Jun-29 12:13N 36°09' W 005°22'0 0.0
2015-Jun-29 11:31N 36°09' W 005°22'0 0.1
2015-Jun-29 10:31N 36°09' W 005°22'0 0.0
2015-Jun-29 09:28N 36°09' W 005°22'1 0.7
2015-Jun-29 08:33N 36°09' W 005°23'9 9.0
2015-Jun-29 07:33N 35°60' W 005°24'7 0.7
2015-Jun-28 21:24N 35°56' W 005°31'6 7.2
2015-Jun-28 20:32N 36°00' W 005°25'8 8.0
2015-Jun-28 19:33N 36°08' W 005°22'1 0.5
2015-Jun-28 18:21N 36°08' W 005°22'0 0.1
2015-Jun-28 17:33N 36°08' W 005°22'0 0.0
2015-Jun-28 16:33N 36°08' W 005°22'0 0.0
2015-Jun-28 15:33N 36°08' W 005°22'0 0.0
2015-Jun-28 14:33N 36°08' W 005°22'0 0.1
2015-Jun-28 13:33N 36°08' W 005°22'0 0.0
2015-Jun-28 12:33N 36°08' W 005°22'0 0.2
2015-Jun-28 11:24N 36°08' W 005°22'0 0.0
2015-Jun-28 10:24N 36°08' W 005°22'0 0.0
2015-Jun-28 08:27N 36°08' W 005°22'0 0.0
2015-Jun-28 07:33N 36°08' W 005°22'3 3.1
2015-Jun-28 06:34N 36°06' W 005°20'1 1.2
2015-Jun-28 05:29N 36°07' W 005°19'0 0.0
2015-Jun-28 04:32N 36°07' W 005°19'0 0.0
2015-Jun-28 03:31N 36°07' W 005°19'0 0.0
2015-Jun-28 02:31N 36°07' W 005°19'0 0.0
2015-Jun-28 01:31N 36°07' W 005°19'0 0.0
2015-Jun-28 00:28N 36°07' W 005°19'0 0.0
2015-Jun-27 23:31N 36°07' W 005°19'0 0.0
2015-Jun-27 22:31N 36°07' W 005°19'0 0.1
2015-Jun-27 21:33N 36°07' W 005°19'3 3.0
2015-Jun-27 20:31N 36°08' W 005°22'0 0.1
2015-Jun-27 19:28N 36°08' W 005°22'0 0.1
2015-Jun-27 18:31N 36°08' W 005°22'0 0.1
2015-Jun-27 17:31N 36°08' W 005°22'0 0.1
2015-Jun-27 16:31N 36°08' W 005°22'0 0.0
2015-Jun-27 15:31N 36°08' W 005°22'0 0.1
2015-Jun-27 14:31N 36°08' W 005°22'0 0.1
2015-Jun-27 13:30N 36°08' W 005°22'0 0.1
2015-Jun-27 12:33N 36°08' W 005°22'1 0.2
2015-Jun-27 08:27N 36°07' W 005°22'1 0.4
2015-Jun-27 06:24N 36°07' W 005°22'0 0.1
2015-Jun-27 05:33N 36°07' W 005°22'0 0.0
2015-Jun-27 04:33N 36°07' W 005°22'0 0.0
2015-Jun-27 03:24N 36°07' W 005°22'0 0.0
2015-Jun-27 02:33N 36°07' W 005°22'0 0.0
2015-Jun-27 01:33N 36°07' W 005°22'0 0.1
2015-Jun-27 00:17N 36°07' W 005°22'2 3.3
2015-Jun-26 23:33N 36°09' W 005°22'0 0.1
2015-Jun-26 22:32N 36°09' W 005°22'0 0.1
2015-Jun-26 21:14N 36°09' W 005°22'0 0.0
2015-Jun-26 20:32N 36°09' W 005°22'1 0.2
2015-Jun-26 17:04N 36°09' W 005°22'0 0.1
2015-Jun-26 16:21N 36°09' W 005°22'0 0.0
2015-Jun-26 15:09N 36°09' W 005°22'0 0.0
2015-Jun-26 14:30N 36°09' W 005°22'0 0.0
2015-Jun-26 13:24N 36°09' W 005°22'0 0.0
2015-Jun-26 05:24N 36°09' W 005°22'0 0.0
2015-Jun-26 04:30N 36°09' W 005°22'0 0.0
2015-Jun-26 03:33N 36°09' W 005°22'0 0.0
2015-Jun-26 02:33N 36°09' W 005°22'0 0.0
2015-Jun-26 01:30N 36°09' W 005°22'0 0.0
2015-Jun-26 00:30N 36°09' W 005°22'0 0.0
2015-Jun-25 23:30N 36°09' W 005°22'0 0.0
2015-Jun-25 22:27N 36°09' W 005°22'0 0.0
2015-Jun-25 21:24N 36°09' W 005°22'0 0.0
2015-Jun-25 20:29N 36°09' W 005°22'0 0.0
2015-Jun-25 19:32N 36°09' W 005°22'0 0.0
2015-Jun-25 18:32N 36°09' W 005°22'0 0.0
2015-Jun-25 17:29N 36°09' W 005°22'0 0.0
2015-Jun-25 11:29N 36°09' W 005°22'0 0.0
2015-Jun-25 05:26N 36°09' W 005°22'2 2.2
2015-Jun-25 04:30N 36°07' W 005°22'0 0.0
2015-Jun-25 03:33N 36°07' W 005°22'0 0.2
2015-Jun-25 02:33N 36°07' W 005°21'0 0.1
2015-Jun-25 01:30N 36°07' W 005°21'0 0.0
2015-Jun-25 00:33N 36°07' W 005°21'0 0.2
2015-Jun-24 23:30N 36°07' W 005°21'0 0.0
2015-Jun-24 22:27N 36°07' W 005°21'1 1.6
2015-Jun-24 21:33N 36°08' W 005°22'1 1.4
2015-Jun-24 20:33N 36°09' W 005°23'0 0.0
2015-Jun-24 19:33N 36°09' W 005°23'1 1.1
2015-Jun-24 18:33N 36°08' W 005°23'1 0.7
2015-Jun-24 17:30N 36°08' W 005°22'0 0.2
2015-Jun-24 16:33N 36°08' W 005°22'0 0.1
2015-Jun-24 15:30N 36°08' W 005°22'0 0.0
2015-Jun-24 14:33N 36°08' W 005°22'0 0.1
2015-Jun-24 12:33N 36°08' W 005°22'3 2.4
2015-Jun-24 11:29N 36°07' W 005°19'0 0.0
2015-Jun-24 10:14N 36°07' W 005°19'0 0.0
2015-Jun-24 09:32N 36°07' W 005°19'0 0.0
2015-Jun-24 08:32N 36°07' W 005°19'  
Track history (hours):
 
Tides and Currents Weather Stations Pressure Air Temp Water Temp Dewpoint Dewpoint Depression Visibility Wind Speed Wind Dir Waves Ship Positions

Aegean Princess

Last reported at 2015-Jul-04 07:30 UTC. Time now 2015-Jul-04 08:29 UTC.
Position N 36°07' W 005°22'.

Length 100 m; draft 7 m.

Type: Ship. MMSI: 236111476.

Date/timePositionNaut miles runAvg speedWind from/ knotsBaromVisibWave heightAir tempDewpointWater temp
2015-Jul-04 07:30N 36°07' W 005°22'0 0.0
2015-Jul-04 06:32N 36°07' W 005°22'0 0.0
2015-Jul-04 05:32N 36°07' W 005°22'0 0.1
2015-Jul-04 04:26N 36°07' W 005°22'0 0.0
2015-Jul-04 01:05N 36°07' W 005°22'0 0.1
2015-Jul-04 00:32N 36°07' W 005°22'0 0.2
2015-Jul-03 23:31N 36°07' W 005°22'2 0.7
2015-Jul-03 20:08N 36°09' W 005°22'0 0.0
2015-Jul-03 19:32N 36°09' W 005°22'0 0.0
2015-Jul-03 18:29N 36°09' W 005°22'0 0.0
2015-Jul-03 16:08N 36°09' W 005°22'0 0.1
2015-Jul-03 15:32N 36°09' W 005°22'0 0.1
2015-Jul-03 14:26N 36°09' W 005°22'0 0.0
2015-Jul-03 07:28N 36°09' W 005°22'0 0.1
2015-Jul-03 05:31N 36°09' W 005°22'0 0.0
2015-Jul-03 04:22N 36°09' W 005°22'0 0.0
2015-Jul-03 03:31N 36°09' W 005°22'0 0.0
2015-Jul-03 02:19N 36°09' W 005°22'0 0.0
2015-Jul-03 01:31N 36°09' W 005°22'0 0.1
2015-Jul-03 00:31N 36°09' W 005°22'1 1.2
2015-Jul-02 23:32N 36°08' W 005°23'1 1.1
2015-Jul-02 22:28N 36°07' W 005°22'0 0.0
2015-Jul-02 21:31N 36°07' W 005°22'0 0.1
2015-Jul-02 20:31N 36°07' W 005°22'0 0.0
2015-Jul-02 19:31N 36°07' W 005°22'0 0.1
2015-Jul-02 18:22N 36°07' W 005°22'0 0.2
2015-Jul-02 17:31N 36°07' W 005°22'0 0.1
2015-Jul-02 16:31N 36°07' W 005°22'0 0.1
2015-Jul-02 15:31N 36°07' W 005°22'0 0.2
2015-Jul-02 13:33N 36°07' W 005°22'2 0.9
2015-Jul-02 11:25N 36°09' W 005°22'2 0.4
2015-Jul-02 06:33N 36°07' W 005°22'1 0.6
2015-Jul-02 05:33N 36°07' W 005°21'0 0.0
2015-Jul-02 04:33N 36°07' W 005°21'0 0.0
2015-Jul-02 03:33N 36°07' W 005°21'0 0.0
2015-Jul-02 02:30N 36°07' W 005°21'0 0.1
2015-Jul-02 01:30N 36°07' W 005°21'3 0.4
2015-Jul-01 18:23N 36°09' W 005°23'0 0.0
2015-Jul-01 17:32N 36°09' W 005°23'0 0.1
2015-Jul-01 16:32N 36°09' W 005°23'0 0.0
2015-Jul-01 15:26N 36°09' W 005°23'1 0.1
2015-Jul-01 06:19N 36°09' W 005°23'1 0.8
2015-Jul-01 05:33N 36°08' W 005°22'0 0.0
2015-Jul-01 04:33N 36°08' W 005°22'0 0.1
2015-Jul-01 03:33N 36°08' W 005°22'0 0.4
2015-Jul-01 02:33N 36°09' W 005°22'0 0.4
2015-Jul-01 01:33N 36°09' W 005°22'0 0.0
2015-Jul-01 00:27N 36°09' W 005°22'0 0.0
2015-Jun-30 23:33N 36°09' W 005°22'0 0.0
2015-Jun-30 22:33N 36°09' W 005°22'0 0.0
2015-Jun-30 21:33N 36°09' W 005°22'0 0.0
2015-Jun-30 20:33N 36°09' W 005°22'0 0.0
2015-Jun-30 19:33N 36°09' W 005°22'0 0.0
2015-Jun-30 18:30N 36°09' W 005°22'0 0.0
2015-Jun-30 17:33N 36°09' W 005°22'0 0.0
2015-Jun-30 16:33N 36°09' W 005°22'0 0.0
2015-Jun-30 15:33N 36°09' W 005°22'0 0.0
2015-Jun-30 14:33N 36°09' W 005°22'0 0.0
2015-Jun-30 13:33N 36°09' W 005°22'0 0.0
2015-Jun-30 12:32N 36°09' W 005°22'1 0.4
2015-Jun-30 09:09N 36°07' W 005°22'0 0.0
2015-Jun-30 06:16N 36°07' W 005°22'2 0.3
2015-Jun-29 23:10N 36°09' W 005°22'2 3.7
2015-Jun-29 22:31N 36°07' W 005°21'0 0.1
2015-Jun-29 21:28N 36°07' W 005°21'0 0.1
2015-Jun-29 20:16N 36°07' W 005°21'0 0.1
2015-Jun-29 19:19N 36°07' W 005°21'2 2.1
2015-Jun-29 18:33N 36°08' W 005°23'1 0.9
2015-Jun-29 17:26N 36°09' W 005°22'0 0.0
2015-Jun-29 16:14N 36°09' W 005°22'0 0.0
2015-Jun-29 15:29N 36°09' W 005°22'14 6.4
2015-Jun-29 13:21N 35°56' W 005°28'1412.3
2015-Jun-29 12:13N 36°09' W 005°22'0 0.0
2015-Jun-29 11:31N 36°09' W 005°22'0 0.1
2015-Jun-29 10:31N 36°09' W 005°22'0 0.0
2015-Jun-29 09:28N 36°09' W 005°22'1 0.7
2015-Jun-29 08:33N 36°09' W 005°23'9 9.0
2015-Jun-29 07:33N 35°60' W 005°24'7 0.7
2015-Jun-28 21:24N 35°56' W 005°31'6 7.2
2015-Jun-28 20:32N 36°00' W 005°25'8 8.0
2015-Jun-28 19:33N 36°08' W 005°22'1 0.5
2015-Jun-28 18:21N 36°08' W 005°22'0 0.1
2015-Jun-28 17:33N 36°08' W 005°22'0 0.0
2015-Jun-28 16:33N 36°08' W 005°22'0 0.0
2015-Jun-28 15:33N 36°08' W 005°22'0 0.0
2015-Jun-28 14:33N 36°08' W 005°22'0 0.1
2015-Jun-28 13:33N 36°08' W 005°22'0 0.0
2015-Jun-28 12:33N 36°08' W 005°22'0 0.2
2015-Jun-28 11:24N 36°08' W 005°22'0 0.0
2015-Jun-28 10:24N 36°08' W 005°22'0 0.0
2015-Jun-28 08:27N 36°08' W 005°22'0 0.0
2015-Jun-28 07:33N 36°08' W 005°22'3 3.1
2015-Jun-28 06:34N 36°06' W 005°20'1 1.2
2015-Jun-28 05:29N 36°07' W 005°19'0 0.0
2015-Jun-28 04:32N 36°07' W 005°19'0 0.0
2015-Jun-28 03:31N 36°07' W 005°19'0 0.0
2015-Jun-28 02:31N 36°07' W 005°19'0 0.0
2015-Jun-28 01:31N 36°07' W 005°19'0 0.0
2015-Jun-28 00:28N 36°07' W 005°19'0 0.0
2015-Jun-27 23:31N 36°07' W 005°19'0 0.0
2015-Jun-27 22:31N 36°07' W 005°19'0 0.1
2015-Jun-27 21:33N 36°07' W 005°19'3 3.0
2015-Jun-27 20:31N 36°08' W 005°22'0 0.1
2015-Jun-27 19:28N 36°08' W 005°22'0 0.1
2015-Jun-27 18:31N 36°08' W 005°22'0 0.1
2015-Jun-27 17:31N 36°08' W 005°22'0 0.1
2015-Jun-27 16:31N 36°08' W 005°22'0 0.0
2015-Jun-27 15:31N 36°08' W 005°22'0 0.1
2015-Jun-27 14:31N 36°08' W 005°22'0 0.1
2015-Jun-27 13:30N 36°08' W 005°22'0 0.1
2015-Jun-27 12:33N 36°08' W 005°22'1 0.2
2015-Jun-27 08:27N 36°07' W 005°22'1 0.4
2015-Jun-27 06:24N 36°07' W 005°22'0 0.1
2015-Jun-27 05:33N 36°07' W 005°22'0 0.0
2015-Jun-27 04:33N 36°07' W 005°22'0 0.0
2015-Jun-27 03:24N 36°07' W 005°22'0 0.0
2015-Jun-27 02:33N 36°07' W 005°22'0 0.0
2015-Jun-27 01:33N 36°07' W 005°22'0 0.1
2015-Jun-27 00:17N 36°07' W 005°22'2 3.3
2015-Jun-26 23:33N 36°09' W 005°22'0 0.1
2015-Jun-26 22:32N 36°09' W 005°22'0 0.1
2015-Jun-26 21:14N 36°09' W 005°22'0 0.0
2015-Jun-26 20:32N 36°09' W 005°22'1 0.2
2015-Jun-26 17:04N 36°09' W 005°22'0 0.1
2015-Jun-26 16:21N 36°09' W 005°22'0 0.0
2015-Jun-26 15:09N 36°09' W 005°22'0 0.0
2015-Jun-26 14:30N 36°09' W 005°22'0 0.0
2015-Jun-26 13:24N 36°09' W 005°22'0 0.0
2015-Jun-26 05:24N 36°09' W 005°22'0 0.0
2015-Jun-26 04:30N 36°09' W 005°22'0 0.0
2015-Jun-26 03:33N 36°09' W 005°22'0 0.0
2015-Jun-26 02:33N 36°09' W 005°22'0 0.0
2015-Jun-26 01:30N 36°09' W 005°22'0 0.0
2015-Jun-26 00:30N 36°09' W 005°22'0 0.0
2015-Jun-25 23:30N 36°09' W 005°22'0 0.0
2015-Jun-25 22:27N 36°09' W 005°22'0 0.0
2015-Jun-25 21:24N 36°09' W 005°22'0 0.0
2015-Jun-25 20:29N 36°09' W 005°22'0 0.0
2015-Jun-25 19:32N 36°09' W 005°22'0 0.0
2015-Jun-25 18:32N 36°09' W 005°22'0 0.0
2015-Jun-25 17:29N 36°09' W 005°22'0 0.0
2015-Jun-25 11:29N 36°09' W 005°22'0 0.0
2015-Jun-25 05:26N 36°09' W 005°22'2 2.2
2015-Jun-25 04:30N 36°07' W 005°22'0 0.0
2015-Jun-25 03:33N 36°07' W 005°22'0 0.2
2015-Jun-25 02:33N 36°07' W 005°21'0 0.1
2015-Jun-25 01:30N 36°07' W 005°21'0 0.0
2015-Jun-25 00:33N 36°07' W 005°21'0 0.2
2015-Jun-24 23:30N 36°07' W 005°21'0 0.0
2015-Jun-24 22:27N 36°07' W 005°21'1 1.6
2015-Jun-24 21:33N 36°08' W 005°22'1 1.4
2015-Jun-24 20:33N 36°09' W 005°23'0 0.0
2015-Jun-24 19:33N 36°09' W 005°23'1 1.1
2015-Jun-24 18:33N 36°08' W 005°23'1 0.7
2015-Jun-24 17:30N 36°08' W 005°22'0 0.2
2015-Jun-24 16:33N 36°08' W 005°22'0 0.1
2015-Jun-24 15:30N 36°08' W 005°22'0 0.0
2015-Jun-24 14:33N 36°08' W 005°22'0 0.1
2015-Jun-24 12:33N 36°08' W 005°22'3 2.4
2015-Jun-24 11:29N 36°07' W 005°19'0 0.0
2015-Jun-24 10:14N 36°07' W 005°19'0 0.0
2015-Jun-24 09:32N 36°07' W 005°19'0 0.0
2015-Jun-24 08:32N 36°07' W 005°19'  

Dump ship's entire track history